createdAt,value
2022-12-23T00:00:29.833Z,41.53
2022-12-23T00:01:04.483Z,42.58
2022-12-23T00:01:36.510Z,42.38
2022-12-23T00:02:08.523Z,43.00
2022-12-23T00:02:40.618Z,43.40
2022-12-23T00:03:12.829Z,42.92
2022-12-23T00:03:45.018Z,43.22
2022-12-23T00:04:17.020Z,41.13
2022-12-23T00:04:48.907Z,41.85
2022-12-23T00:05:20.784Z,42.72
2022-12-23T00:05:53.034Z,40.92
2022-12-23T00:06:25.854Z,41.35
2022-12-23T00:06:57.719Z,41.25
2022-12-23T00:07:29.549Z,43.17
2022-12-23T00:08:01.385Z,43.08
2022-12-23T00:08:34.791Z,43.30
2022-12-23T00:09:06.634Z,42.75
2022-12-23T00:09:38.493Z,42.85
2022-12-23T00:10:10.943Z,43.33
2022-12-23T00:10:43.213Z,42.67
2022-12-23T00:11:19.977Z,41.75
2022-12-23T00:12:10.829Z,41.83
2022-12-23T00:13:01.191Z,41.75
2022-12-23T00:13:51.668Z,39.78
2022-12-23T00:14:42.231Z,39.88
2022-12-23T00:15:14.404Z,39.05
2022-12-23T00:15:46.241Z,40.00
2022-12-23T00:16:18.157Z,39.08
2022-12-23T00:16:51.155Z,39.70
2022-12-23T00:17:23.732Z,41.25
2022-12-23T00:17:55.625Z,41.30
2022-12-23T00:18:27.448Z,39.83
2022-12-23T00:18:59.290Z,40.97
2022-12-23T00:19:31.101Z,40.15
2022-12-23T00:20:04.696Z,42.40
2022-12-23T00:20:36.567Z,42.00
2022-12-23T00:21:14.346Z,40.92
2022-12-23T00:21:46.171Z,39.75
2022-12-23T00:22:18.140Z,42.13
2022-12-23T00:23:05.300Z,41.75
2022-12-23T00:23:40.598Z,38.88
2022-12-23T00:24:12.464Z,40.10
2022-12-23T00:24:44.335Z,42.83
2022-12-23T00:25:16.417Z,42.28
2022-12-23T00:25:48.429Z,44.35
2022-12-23T00:26:22.825Z,41.40
2022-12-23T00:26:54.680Z,40.67
2022-12-23T00:27:27.090Z,41.30
2022-12-23T00:28:02.423Z,41.88
2022-12-23T00:28:34.285Z,39.60
2022-12-23T00:29:06.676Z,43.47
2022-12-23T00:29:38.509Z,42.25
2022-12-23T00:30:10.953Z,43.87
2022-12-23T00:30:48.872Z,42.92
2022-12-23T00:31:21.304Z,41.28
2022-12-23T00:31:53.343Z,39.70
2022-12-23T00:32:25.230Z,42.78
2022-12-23T00:32:57.051Z,43.17
2022-12-23T00:33:32.142Z,42.20
2022-12-23T00:34:04.011Z,43.75
2022-12-23T00:34:35.908Z,42.70
2022-12-23T00:35:08.036Z,42.13
2022-12-23T00:35:40.048Z,40.88
2022-12-23T00:36:19.926Z,41.60
2022-12-23T00:36:51.830Z,41.80
2022-12-23T00:37:23.771Z,42.62
2022-12-23T00:37:55.640Z,40.30
2022-12-23T00:38:47.152Z,40.35
2022-12-23T00:39:38.184Z,38.85
2022-12-23T00:40:32.100Z,40.92
2022-12-23T00:41:33.825Z,39.15
2022-12-23T00:42:24.128Z,40.42
2022-12-23T00:42:56.048Z,37.85
2022-12-23T00:43:28.159Z,39.45
2022-12-23T00:44:01.057Z,39.58
2022-12-23T00:44:33.225Z,41.10
2022-12-23T00:45:15.885Z,40.05
2022-12-23T00:45:48.236Z,39.40
2022-12-23T00:46:20.227Z,39.25
2022-12-23T00:46:52.154Z,40.70
2022-12-23T00:47:42.584Z,40.25
2022-12-23T00:48:33.703Z,38.90
2022-12-23T00:49:24.372Z,39.67
2022-12-23T00:49:56.585Z,37.17
2022-12-23T00:50:28.878Z,40.65
2022-12-23T00:51:00.755Z,39.30
2022-12-23T00:51:32.764Z,40.80
2022-12-23T00:52:06.632Z,39.03
2022-12-23T00:52:38.440Z,39.47
2022-12-23T00:53:10.305Z,40.95
2022-12-23T00:53:42.129Z,40.55
2022-12-23T00:54:14.129Z,40.92
2022-12-23T00:54:46.053Z,41.00
2022-12-23T00:55:18.208Z,39.33
2022-12-23T00:55:50.832Z,40.47
2022-12-23T00:56:22.706Z,42.78
2022-12-23T00:56:54.788Z,39.50
2022-12-23T00:57:26.657Z,39.80
2022-12-23T00:57:58.863Z,41.65
2022-12-23T00:58:32.006Z,39.25
2022-12-23T00:59:04.106Z,40.45
2022-12-23T00:59:36.170Z,40.15
2022-12-23T01:00:08.836Z,40.42
2022-12-23T01:01:00.141Z,42.75
2022-12-23T01:01:51.162Z,39.95
2022-12-23T01:02:42.124Z,38.08
2022-12-23T01:03:33.980Z,39.22
2022-12-23T01:04:24.419Z,39.42
2022-12-23T01:05:14.676Z,37.95
2022-12-23T01:05:46.828Z,38.95
2022-12-23T01:06:18.725Z,40.30
2022-12-23T01:06:50.576Z,38.85
2022-12-23T01:07:23.492Z,38.88
2022-12-23T01:07:55.842Z,39.08
2022-12-23T01:08:28.059Z,39.03
2022-12-23T01:08:59.950Z,41.05
2022-12-23T01:09:32.129Z,40.65
2022-12-23T01:10:04.459Z,38.95
2022-12-23T01:10:40.561Z,38.42
2022-12-23T01:11:13.180Z,39.33
2022-12-23T01:11:44.997Z,41.10
2022-12-23T01:12:16.886Z,39.28
2022-12-23T01:12:48.747Z,40.22
2022-12-23T01:13:21.331Z,40.08
2022-12-23T01:13:53.184Z,39.13
2022-12-23T01:14:25.989Z,39.50
2022-12-23T01:14:57.823Z,39.10
2022-12-23T01:15:29.917Z,40.08
2022-12-23T01:16:04.409Z,39.65
2022-12-23T01:16:38.608Z,40.25
2022-12-23T01:17:10.558Z,39.75
2022-12-23T01:17:42.415Z,40.60
2022-12-23T01:18:14.269Z,39.40
2022-12-23T01:18:46.152Z,39.80
2022-12-23T01:19:17.997Z,40.30
2022-12-23T01:19:49.871Z,41.03
2022-12-23T01:20:21.783Z,40.33
2022-12-23T01:20:53.657Z,41.25
2022-12-23T01:21:25.500Z,40.33
2022-12-23T01:21:57.711Z,40.63
2022-12-23T01:22:29.668Z,39.15
2022-12-23T01:23:01.582Z,39.17
2022-12-23T01:23:34.695Z,39.47
2022-12-23T01:24:06.977Z,38.88
2022-12-23T01:24:38.913Z,39.10
2022-12-23T01:25:10.899Z,41.30
2022-12-23T01:25:42.710Z,39.55
2022-12-23T01:26:14.581Z,39.95
2022-12-23T01:26:46.476Z,40.65
2022-12-23T01:27:18.615Z,39.47
2022-12-23T01:27:50.454Z,38.00
2022-12-23T01:28:22.309Z,39.75
2022-12-23T01:28:58.139Z,40.75
2022-12-23T01:29:30.075Z,62.38
2022-12-23T01:30:01.945Z,53.90
2022-12-23T01:30:33.792Z,50.10
2022-12-23T01:31:07.905Z,47.22
2022-12-23T01:31:39.769Z,51.88
2022-12-23T01:32:11.672Z,52.38
2022-12-23T01:32:43.900Z,47.45
2022-12-23T01:33:15.741Z,43.08
2022-12-23T01:33:48.255Z,45.20
2022-12-23T01:34:20.114Z,45.83
2022-12-23T01:34:51.941Z,43.22
2022-12-23T01:35:23.822Z,43.22
2022-12-23T01:36:03.666Z,47.60
2022-12-23T01:36:35.506Z,40.77
2022-12-23T01:37:07.361Z,39.35
2022-12-23T01:37:39.208Z,37.58
2022-12-23T01:38:11.331Z,38.15
2022-12-23T01:38:43.253Z,38.92
2022-12-23T01:39:15.087Z,37.42
2022-12-23T01:39:46.982Z,38.97
2022-12-23T01:40:18.925Z,40.75
2022-12-23T01:40:50.777Z,52.78
2022-12-23T01:41:46.965Z,45.00
2022-12-23T01:42:39.476Z,37.45
2022-12-23T01:43:19.778Z,35.03
2022-12-23T01:43:52.282Z,35.70
2022-12-23T01:44:54.994Z,36.38
2022-12-23T01:45:31.896Z,34.05
2022-12-23T01:46:03.856Z,33.22
2022-12-23T01:46:35.711Z,37.15
2022-12-23T01:47:13.193Z,38.17
2022-12-23T01:47:45.039Z,40.75
2022-12-23T01:48:25.185Z,40.30
2022-12-23T01:48:57.674Z,49.08
2022-12-23T01:49:29.484Z,67.80
2022-12-23T01:50:23.320Z,55.80
2022-12-23T01:51:02.317Z,57.70
2022-12-23T01:51:34.222Z,74.25
2022-12-23T01:52:06.071Z,68.37
2022-12-23T01:52:50.106Z,78.15
2022-12-23T01:53:30.803Z,63.40
2022-12-23T01:54:02.818Z,50.60
2022-12-23T01:54:36.167Z,50.55
2022-12-23T01:55:08.571Z,43.50
2022-12-23T01:55:51.600Z,51.55
2022-12-23T01:56:33.202Z,53.97
2022-12-23T01:57:05.273Z,61.60
2022-12-23T01:57:41.354Z,68.82
2022-12-23T01:58:28.262Z,62.92
2022-12-23T01:59:06.919Z,62.45
2022-12-23T01:59:58.120Z,59.30
2022-12-23T02:01:40.245Z,44.13
2022-12-23T02:02:31.046Z,40.50
2022-12-23T02:03:21.756Z,36.25
2022-12-23T02:03:57.757Z,35.15
2022-12-23T02:04:29.669Z,34.92
2022-12-23T02:05:02.341Z,35.67
2022-12-23T02:05:35.047Z,37.05
2022-12-23T02:06:25.911Z,45.60
2022-12-23T02:08:07.403Z,36.05
2022-12-23T02:09:02.835Z,35.42
2022-12-23T02:09:38.132Z,34.30
2022-12-23T02:10:10.301Z,35.78
2022-12-23T02:11:13.207Z,35.47
2022-12-23T02:11:58.601Z,36.13
2022-12-23T02:12:55.370Z,35.13
2022-12-23T02:14:31.525Z,34.85
2022-12-23T02:15:37.016Z,46.17
2022-12-23T02:16:19.435Z,38.80
2022-12-23T02:17:01.816Z,36.38
2022-12-23T02:18:05.658Z,34.03
2022-12-23T02:18:52.454Z,37.08
2022-12-23T02:19:52.785Z,40.55
2022-12-23T02:21:11.834Z,38.65
2022-12-23T02:21:46.391Z,34.35
2022-12-23T02:22:36.789Z,34.67
2022-12-23T02:23:34.589Z,43.22
2022-12-23T02:24:12.263Z,42.40
2022-12-23T02:24:58.553Z,54.47
2022-12-23T02:26:07.948Z,43.15
2022-12-23T02:27:12.536Z,36.72
2022-12-23T02:28:03.080Z,60.38
2022-12-23T02:28:43.852Z,48.42
2022-12-23T02:29:27.612Z,43.00
2022-12-23T02:30:45.958Z,47.70
2022-12-23T02:31:44.273Z,39.60
2022-12-23T02:32:38.308Z,39.60
2022-12-23T02:34:01.102Z,36.75
2022-12-23T02:34:45.799Z,37.58
2022-12-23T02:35:30.862Z,38.83
2022-12-23T02:36:27.181Z,37.88
2022-12-23T02:37:24.047Z,36.08
2022-12-23T02:38:11.903Z,33.70
2022-12-23T02:39:18.768Z,34.70
2022-12-23T02:39:57.939Z,31.65
2022-12-23T02:41:06.570Z,36.53
2022-12-23T02:42:02.347Z,34.13
2022-12-23T02:42:38.830Z,35.42
2022-12-23T02:43:22.982Z,34.83
2022-12-23T02:44:02.287Z,34.90
2022-12-23T02:44:44.520Z,41.55
2022-12-23T02:45:26.447Z,39.17
2022-12-23T02:46:01.279Z,36.70
2022-12-23T02:46:38.495Z,37.25
2022-12-23T02:47:14.889Z,36.65
2022-12-23T02:48:00.470Z,36.85
2022-12-23T02:48:39.667Z,35.40
2022-12-23T02:49:33.942Z,35.20
2022-12-23T02:50:17.779Z,35.42
2022-12-23T02:50:53.372Z,34.17
2022-12-23T02:51:31.829Z,36.78
2022-12-23T02:52:08.802Z,36.70
2022-12-23T02:52:43.980Z,34.85
2022-12-23T02:53:28.736Z,35.22
2022-12-23T02:54:04.119Z,34.47
2022-12-23T02:54:41.868Z,35.53
2022-12-23T02:55:19.606Z,36.03
2022-12-23T02:55:54.980Z,35.15
2022-12-23T02:56:30.847Z,36.35
2022-12-23T02:57:05.296Z,35.10
2022-12-23T02:57:42.223Z,37.42
2022-12-23T02:58:18.056Z,36.00
2022-12-23T02:58:55.948Z,36.90
2022-12-23T02:59:31.686Z,37.47
2022-12-23T03:00:05.892Z,36.85
2022-12-23T03:00:40.052Z,37.38
2022-12-23T03:01:15.299Z,35.42
2022-12-23T03:01:47.873Z,37.55
2022-12-23T03:02:20.160Z,36.17
2022-12-23T03:02:52.677Z,36.75
2022-12-23T03:03:26.226Z,35.80
2022-12-23T03:03:58.308Z,36.50
2022-12-23T03:04:30.281Z,36.33
2022-12-23T03:05:02.127Z,35.90
2022-12-23T03:05:40.590Z,36.10
2022-12-23T03:06:22.918Z,34.75
2022-12-23T03:06:56.672Z,35.97
2022-12-23T03:07:38.054Z,36.17
2022-12-23T03:08:45.678Z,34.40
2022-12-23T03:09:34.863Z,35.67
2022-12-23T03:10:20.181Z,35.33
2022-12-23T03:11:07.767Z,34.25
2022-12-23T03:12:01.383Z,33.05
2022-12-23T03:12:47.521Z,34.30
2022-12-23T03:13:42.071Z,32.70
2022-12-23T03:14:32.810Z,37.00
2022-12-23T03:15:22.972Z,35.78
2022-12-23T03:16:03.904Z,34.57
2022-12-23T03:17:54.521Z,32.58
2022-12-23T03:19:03.578Z,35.22
2022-12-23T03:19:35.385Z,33.65
2022-12-23T03:20:34.768Z,35.15
2022-12-23T03:21:21.769Z,35.85
2022-12-23T03:21:53.540Z,34.80
2022-12-23T03:22:32.490Z,36.45
2022-12-23T03:23:08.712Z,35.83
2022-12-23T03:23:55.564Z,37.90
2022-12-23T03:24:42.344Z,36.55
2022-12-23T03:25:32.255Z,34.25
2022-12-23T03:26:14.226Z,33.40
2022-12-23T03:27:03.978Z,34.35
2022-12-23T03:27:47.945Z,32.25
2022-12-23T03:28:30.515Z,36.72
2022-12-23T03:29:15.640Z,34.47
2022-12-23T03:30:06.215Z,34.65
2022-12-23T03:30:43.314Z,33.55
2022-12-23T03:31:22.816Z,35.08
2022-12-23T03:31:59.370Z,33.95
2022-12-23T03:32:39.134Z,36.65
2022-12-23T03:33:14.838Z,33.65
2022-12-23T03:33:53.833Z,35.70
2022-12-23T03:34:31.075Z,34.05
2022-12-23T03:35:07.672Z,35.13
2022-12-23T03:36:03.144Z,35.88
2022-12-23T03:37:04.264Z,34.75
2022-12-23T03:37:39.755Z,33.25
2022-12-23T03:38:14.964Z,36.05
2022-12-23T03:38:50.238Z,34.58
2022-12-23T03:39:26.261Z,36.58
2022-12-23T03:40:10.848Z,34.53
2022-12-23T03:40:47.304Z,34.80
2022-12-23T03:41:31.608Z,36.05
2022-12-23T03:42:15.870Z,35.47
2022-12-23T03:42:51.412Z,36.58
2022-12-23T03:43:28.828Z,36.15
2022-12-23T03:44:09.393Z,36.20
2022-12-23T03:45:10.827Z,36.75
2022-12-23T03:45:45.350Z,35.50
2022-12-23T03:46:23.583Z,34.55
2022-12-23T03:47:05.093Z,36.33
2022-12-23T03:47:46.712Z,35.75
2022-12-23T03:48:29.535Z,37.35
2022-12-23T03:49:09.153Z,36.60
2022-12-23T03:49:57.721Z,35.90
2022-12-23T03:50:32.121Z,34.83
2022-12-23T03:51:11.551Z,34.67
2022-12-23T03:51:55.480Z,36.78
2022-12-23T03:52:53.447Z,36.25
2022-12-23T03:53:54.812Z,33.72
2022-12-23T03:54:34.263Z,34.05
2022-12-23T03:55:09.793Z,35.20
2022-12-23T03:55:48.502Z,35.80
2022-12-23T03:56:29.480Z,36.75
2022-12-23T03:57:05.452Z,37.28
2022-12-23T03:57:43.197Z,36.15
2022-12-23T03:58:39.896Z,35.28
2022-12-23T03:59:26.353Z,34.72
2022-12-23T03:59:58.653Z,35.97
2022-12-23T04:00:36.000Z,37.40
2022-12-23T04:01:49.925Z,37.65
2022-12-23T04:02:38.034Z,37.75
2022-12-23T04:03:28.604Z,33.75
2022-12-23T04:04:11.235Z,34.28
2022-12-23T04:05:01.171Z,34.88
2022-12-23T04:05:36.441Z,35.35
2022-12-23T04:06:14.438Z,36.00
2022-12-23T04:07:20.487Z,34.75
2022-12-23T04:08:06.361Z,35.90
2022-12-23T04:08:39.955Z,35.45
2022-12-23T04:09:16.653Z,36.35
2022-12-23T04:09:53.600Z,36.80
2022-12-23T04:10:26.246Z,36.03
2022-12-23T04:10:58.712Z,36.05
2022-12-23T04:11:31.056Z,37.30
2022-12-23T04:12:03.496Z,36.63
2022-12-23T04:12:36.102Z,37.45
2022-12-23T04:13:08.313Z,36.38
2022-12-23T04:13:40.735Z,39.03
2022-12-23T04:14:20.545Z,39.67
2022-12-23T04:14:52.441Z,36.88
2022-12-23T04:15:26.372Z,36.97
2022-12-23T04:15:59.704Z,37.20
2022-12-23T04:16:33.063Z,36.83
2022-12-23T04:17:05.071Z,40.72
2022-12-23T04:17:36.973Z,41.40
2022-12-23T04:18:10.919Z,40.70
2022-12-23T04:18:42.790Z,37.85
2022-12-23T04:19:15.261Z,36.75
2022-12-23T04:19:47.689Z,39.53
2022-12-23T04:20:19.632Z,36.58
2022-12-23T04:20:51.483Z,37.47
2022-12-23T04:21:23.332Z,38.17
2022-12-23T04:21:56.954Z,38.55
2022-12-23T04:22:31.855Z,37.92
2022-12-23T04:23:04.163Z,36.58
2022-12-23T04:23:36.001Z,38.35
2022-12-23T04:24:08.519Z,37.65
2022-12-23T04:24:40.449Z,37.78
2022-12-23T04:25:14.197Z,38.05
2022-12-23T04:25:46.180Z,38.40
2022-12-23T04:26:18.077Z,37.80
2022-12-23T04:26:49.929Z,36.15
2022-12-23T04:27:22.059Z,35.53
2022-12-23T04:27:53.977Z,38.38
2022-12-23T04:28:25.844Z,38.45
2022-12-23T04:28:57.761Z,39.90
2022-12-23T04:29:29.635Z,38.65
2022-12-23T04:30:01.578Z,37.40
2022-12-23T04:30:34.610Z,39.40
2022-12-23T04:31:06.892Z,38.60
2022-12-23T04:31:38.848Z,37.88
2022-12-23T04:32:10.906Z,39.30
2022-12-23T04:32:43.440Z,38.40
2022-12-23T04:33:15.257Z,39.50
2022-12-23T04:33:47.689Z,38.80
2022-12-23T04:34:19.577Z,38.72
2022-12-23T04:34:51.431Z,38.58
2022-12-23T04:35:23.372Z,36.95
2022-12-23T04:35:55.190Z,37.67
2022-12-23T04:36:27.109Z,37.33
2022-12-23T04:36:58.959Z,39.35
2022-12-23T04:37:30.907Z,38.38
2022-12-23T04:38:03.576Z,39.22
2022-12-23T04:38:35.420Z,41.33
2022-12-23T04:39:07.283Z,38.15
2022-12-23T04:39:39.147Z,37.38
2022-12-23T04:40:11.177Z,36.88
2022-12-23T04:40:46.987Z,40.17
2022-12-23T04:41:18.920Z,39.30
2022-12-23T04:41:51.073Z,37.35
2022-12-23T04:42:23.698Z,39.80
2022-12-23T04:42:55.632Z,38.13
2022-12-23T04:43:27.806Z,39.17
2022-12-23T04:43:59.651Z,38.00
2022-12-23T04:44:31.496Z,39.17
2022-12-23T04:45:03.806Z,35.92
2022-12-23T04:45:35.680Z,39.83
2022-12-23T04:46:07.595Z,37.92
2022-12-23T04:46:39.514Z,38.95
2022-12-23T04:47:11.407Z,38.08
2022-12-23T04:47:43.246Z,37.08
2022-12-23T04:48:15.109Z,38.50
2022-12-23T04:48:47.328Z,38.25
2022-12-23T04:49:19.262Z,37.70
2022-12-23T04:49:51.106Z,36.38
2022-12-23T04:50:23.014Z,38.35
2022-12-23T04:50:54.830Z,38.10
2022-12-23T04:51:26.813Z,37.42
2022-12-23T04:51:58.889Z,37.63
2022-12-23T04:52:30.719Z,37.17
2022-12-23T04:53:02.640Z,39.70
2022-12-23T04:53:36.843Z,36.80
2022-12-23T04:54:08.964Z,36.25
2022-12-23T04:54:45.935Z,37.67
2022-12-23T04:55:18.463Z,36.65
2022-12-23T04:55:51.696Z,36.05
2022-12-23T04:56:23.533Z,37.80
2022-12-23T04:56:55.461Z,35.53
2022-12-23T04:57:27.322Z,37.10
2022-12-23T04:57:59.152Z,37.35
2022-12-23T04:58:30.986Z,37.42
2022-12-23T04:59:04.296Z,35.47
2022-12-23T04:59:36.500Z,36.20
2022-12-23T05:00:08.967Z,35.35
2022-12-23T05:00:41.030Z,35.28
2022-12-23T05:01:13.368Z,31.87
2022-12-23T05:01:45.387Z,34.60
2022-12-23T05:02:17.442Z,35.13
2022-12-23T05:02:49.538Z,34.92
2022-12-23T05:03:21.572Z,34.65
2022-12-23T05:03:53.492Z,35.25
2022-12-23T05:04:25.366Z,35.38
2022-12-23T05:04:57.558Z,34.53
2022-12-23T05:05:29.394Z,35.20
2022-12-23T05:06:01.292Z,34.30
2022-12-23T05:06:33.171Z,34.72
2022-12-23T05:07:05.376Z,33.80
2022-12-23T05:07:37.225Z,33.60
2022-12-23T05:08:09.066Z,33.05
2022-12-23T05:08:40.936Z,33.60
2022-12-23T05:09:12.787Z,34.42
2022-12-23T05:09:44.662Z,34.88
2022-12-23T05:10:17.083Z,33.67
2022-12-23T05:10:48.999Z,33.17
2022-12-23T05:11:20.885Z,33.67
2022-12-23T05:11:52.721Z,34.05
2022-12-23T05:12:24.542Z,32.38
2022-12-23T05:12:56.475Z,33.95
2022-12-23T05:13:28.358Z,35.08
2022-12-23T05:14:00.247Z,31.08
2022-12-23T05:14:32.086Z,33.20
2022-12-23T05:15:04.167Z,31.23
2022-12-23T05:15:36.282Z,32.60
2022-12-23T05:16:08.314Z,32.47
2022-12-23T05:16:40.322Z,32.72
2022-12-23T05:17:12.172Z,30.35
2022-12-23T05:17:43.994Z,31.58
2022-12-23T05:18:16.614Z,30.50
2022-12-23T05:18:48.480Z,31.20
2022-12-23T05:19:20.342Z,31.10
2022-12-23T05:19:52.224Z,31.30
2022-12-23T05:20:24.048Z,32.33
2022-12-23T05:20:56.219Z,31.40
2022-12-23T05:21:28.130Z,30.17
2022-12-23T05:21:59.954Z,30.67
2022-12-23T05:22:31.893Z,32.80
2022-12-23T05:23:03.791Z,32.28
2022-12-23T05:23:35.797Z,31.87
2022-12-23T05:24:07.752Z,31.25
2022-12-23T05:24:39.608Z,31.58
2022-12-23T05:25:11.501Z,30.42
2022-12-23T05:25:43.320Z,32.10
2022-12-23T05:26:15.435Z,31.50
2022-12-23T05:26:50.833Z,29.55
2022-12-23T05:27:27.444Z,31.23
2022-12-23T05:27:59.410Z,29.23
2022-12-23T05:28:31.273Z,29.50
2022-12-23T05:29:03.185Z,29.20
2022-12-23T05:29:35.093Z,29.05
2022-12-23T05:30:07.764Z,29.65
2022-12-23T05:30:39.709Z,30.20
2022-12-23T05:31:12.398Z,30.17
2022-12-23T05:31:44.657Z,29.10
2022-12-23T05:32:16.533Z,30.92
2022-12-23T05:32:48.352Z,29.20
2022-12-23T05:33:20.261Z,29.85
2022-12-23T05:33:52.183Z,29.65
2022-12-23T05:34:24.078Z,29.65
2022-12-23T05:34:55.870Z,30.85
2022-12-23T05:35:28.414Z,30.73
2022-12-23T05:36:01.258Z,29.58
2022-12-23T05:36:33.285Z,29.70
2022-12-23T05:37:05.448Z,30.60
2022-12-23T05:37:37.302Z,30.40
2022-12-23T05:38:09.158Z,31.05
2022-12-23T05:38:41.012Z,31.20
2022-12-23T05:39:12.909Z,31.10
2022-12-23T05:39:44.766Z,30.23
2022-12-23T05:40:21.587Z,29.92
2022-12-23T05:40:55.562Z,29.17
2022-12-23T05:41:27.494Z,28.77
2022-12-23T05:41:59.339Z,28.48
2022-12-23T05:42:31.503Z,27.85
2022-12-23T05:43:03.360Z,28.05
2022-12-23T05:43:35.209Z,29.80
2022-12-23T05:44:07.035Z,29.63
2022-12-23T05:44:39.112Z,27.95
2022-12-23T05:45:11.334Z,29.52
2022-12-23T05:45:43.269Z,27.02
2022-12-23T05:46:15.324Z,28.17
2022-12-23T05:46:47.772Z,28.05
2022-12-23T05:47:19.600Z,29.10
2022-12-23T05:47:51.733Z,27.40
2022-12-23T05:48:23.975Z,28.05
2022-12-23T05:48:55.854Z,27.73
2022-12-23T05:49:27.769Z,29.55
2022-12-23T05:49:59.634Z,29.00
2022-12-23T05:50:31.636Z,29.05
2022-12-23T05:51:06.897Z,26.30
2022-12-23T05:51:39.126Z,30.60
2022-12-23T05:52:10.986Z,27.90
2022-12-23T05:52:42.830Z,27.55
2022-12-23T05:53:15.015Z,28.20
2022-12-23T05:53:46.953Z,28.02
2022-12-23T05:54:18.887Z,27.27
2022-12-23T05:54:50.802Z,27.23
2022-12-23T05:55:22.640Z,27.90
2022-12-23T05:55:54.516Z,28.42
2022-12-23T05:56:26.369Z,26.23
2022-12-23T05:56:58.205Z,28.50
2022-12-23T05:57:31.927Z,28.35
2022-12-23T05:58:03.795Z,26.98
2022-12-23T05:58:35.949Z,34.47
2022-12-23T05:59:08.184Z,37.55
2022-12-23T05:59:40.025Z,37.00
2022-12-23T06:00:12.451Z,43.97
2022-12-23T06:00:44.696Z,34.15
2022-12-23T06:01:17.024Z,29.42
2022-12-23T06:01:49.017Z,31.27
2022-12-23T06:02:22.113Z,32.15
2022-12-23T06:02:54.691Z,31.23
2022-12-23T06:03:26.808Z,31.52
2022-12-23T06:03:58.899Z,27.80
2022-12-23T06:04:31.033Z,27.52
2022-12-23T06:05:03.032Z,26.70
2022-12-23T06:05:37.706Z,25.08
2022-12-23T06:06:09.548Z,24.25
2022-12-23T06:06:41.675Z,25.67
2022-12-23T06:07:13.636Z,25.00
2022-12-23T06:07:45.444Z,27.73
2022-12-23T06:08:17.360Z,26.40
2022-12-23T06:08:53.151Z,27.87
2022-12-23T06:09:27.668Z,26.33
2022-12-23T06:09:59.487Z,25.77
2022-12-23T06:10:31.595Z,25.58
2022-12-23T06:11:06.847Z,25.33
2022-12-23T06:11:38.710Z,23.67
2022-12-23T06:12:10.842Z,26.10
2022-12-23T06:12:42.778Z,26.42
2022-12-23T06:13:14.718Z,26.20
2022-12-23T06:13:46.786Z,26.35
2022-12-23T06:14:21.460Z,26.37
2022-12-23T06:14:57.081Z,26.00
2022-12-23T06:15:28.913Z,24.45
2022-12-23T06:16:00.877Z,24.15
2022-12-23T06:16:33.044Z,24.67
2022-12-23T06:17:05.255Z,23.70
2022-12-23T06:17:37.468Z,24.92
2022-12-23T06:18:09.350Z,24.77
2022-12-23T06:18:41.258Z,26.12
2022-12-23T06:19:13.078Z,32.70
2022-12-23T06:19:44.934Z,34.55
2022-12-23T06:20:20.776Z,26.20
2022-12-23T06:20:53.038Z,25.37
2022-12-23T06:21:25.618Z,24.70
2022-12-23T06:21:57.543Z,23.10
2022-12-23T06:22:29.415Z,25.17
2022-12-23T06:23:01.776Z,25.12
2022-12-23T06:23:33.690Z,24.85
2022-12-23T06:24:06.009Z,24.48
2022-12-23T06:24:37.871Z,24.70
2022-12-23T06:25:09.976Z,25.75
2022-12-23T06:25:41.834Z,24.83
2022-12-23T06:26:13.781Z,25.05
2022-12-23T06:26:45.610Z,24.85
2022-12-23T06:27:18.430Z,23.98
2022-12-23T06:27:50.343Z,22.00
2022-12-23T06:28:22.453Z,24.48
2022-12-23T06:28:54.409Z,24.90
2022-12-23T06:29:26.298Z,25.30
2022-12-23T06:29:58.131Z,24.00
2022-12-23T06:30:30.027Z,24.50
2022-12-23T06:31:01.923Z,24.63
2022-12-23T06:31:33.897Z,25.25
2022-12-23T06:32:06.215Z,23.62
2022-12-23T06:32:39.064Z,24.95
2022-12-23T06:33:10.964Z,24.77
2022-12-23T06:33:43.208Z,23.50
2022-12-23T06:34:15.091Z,24.42
2022-12-23T06:34:46.986Z,24.77
2022-12-23T06:35:18.851Z,22.90
2022-12-23T06:35:50.791Z,25.20
2022-12-23T06:36:22.699Z,25.08
2022-12-23T06:36:54.534Z,24.95
2022-12-23T06:37:26.361Z,25.45
2022-12-23T06:37:58.242Z,24.55
2022-12-23T06:38:30.115Z,27.45
2022-12-23T06:39:02.263Z,26.42
2022-12-23T06:39:34.146Z,27.40
2022-12-23T06:40:06.647Z,25.25
2022-12-23T06:40:38.536Z,24.70
2022-12-23T06:41:10.430Z,25.17
2022-12-23T06:41:42.279Z,25.37
2022-12-23T06:42:15.669Z,26.23
2022-12-23T06:42:47.622Z,28.42
2022-12-23T06:43:19.587Z,26.50
2022-12-23T06:43:54.382Z,36.22
2022-12-23T06:44:26.822Z,34.50
2022-12-23T06:44:58.750Z,32.30
2022-12-23T06:45:30.645Z,30.85
2022-12-23T06:46:02.597Z,28.02
2022-12-23T06:46:34.475Z,29.02
2022-12-23T06:47:06.375Z,29.02
2022-12-23T06:47:38.226Z,30.15
2022-12-23T06:48:10.064Z,28.38
2022-12-23T06:48:41.891Z,29.75
2022-12-23T06:49:14.148Z,28.77
2022-12-23T06:49:46.442Z,25.23
2022-12-23T06:50:18.285Z,26.73
2022-12-23T06:50:50.135Z,26.12
2022-12-23T06:51:22.041Z,27.73
2022-12-23T06:51:54.263Z,27.17
2022-12-23T06:52:26.140Z,26.77
2022-12-23T06:52:58.026Z,27.02
2022-12-23T06:53:29.870Z,28.33
2022-12-23T06:54:01.954Z,26.98
2022-12-23T06:54:33.845Z,30.90
2022-12-23T06:55:06.574Z,34.50
2022-12-23T06:55:38.510Z,33.92
2022-12-23T06:56:10.858Z,28.52
2022-12-23T06:56:42.693Z,33.53
2022-12-23T06:57:14.533Z,27.00
2022-12-23T06:57:46.423Z,29.67
2022-12-23T06:58:18.247Z,27.42
2022-12-23T06:58:50.926Z,27.98
2022-12-23T06:59:23.250Z,27.83
2022-12-23T06:59:55.285Z,26.73
2022-12-23T07:00:27.540Z,26.27
2022-12-23T07:00:59.639Z,26.05
2022-12-23T07:01:31.584Z,28.23
2022-12-23T07:02:03.835Z,28.83
2022-12-23T07:02:36.120Z,26.73
2022-12-23T07:03:08.206Z,28.27
2022-12-23T07:03:40.361Z,27.58
2022-12-23T07:04:12.292Z,29.12
2022-12-23T07:04:44.123Z,28.98
2022-12-23T07:05:17.048Z,28.98
2022-12-23T07:05:50.339Z,28.35
2022-12-23T07:06:22.215Z,27.83
2022-12-23T07:06:54.106Z,28.02
2022-12-23T07:07:26.068Z,28.65
2022-12-23T07:07:58.532Z,28.00
2022-12-23T07:08:30.385Z,27.55
2022-12-23T07:09:02.294Z,14.52
2022-12-23T07:09:34.138Z,31.25
2022-12-23T07:10:06.798Z,32.72
2022-12-23T07:10:38.613Z,32.28
2022-12-23T07:11:10.776Z,31.02
2022-12-23T07:11:42.620Z,29.02
2022-12-23T07:12:14.609Z,30.08
2022-12-23T07:12:50.671Z,30.48
2022-12-23T07:13:23.003Z,27.23
2022-12-23T07:13:54.873Z,25.62
2022-12-23T07:14:26.761Z,28.10
2022-12-23T07:14:58.584Z,27.37
2022-12-23T07:15:30.448Z,27.60
2022-12-23T07:16:09.268Z,33.10
2022-12-23T07:16:41.595Z,35.75
2022-12-23T07:17:13.609Z,33.92
2022-12-23T07:17:45.491Z,29.35
2022-12-23T07:18:17.337Z,28.00
2022-12-23T07:18:49.277Z,26.87
2022-12-23T07:19:21.155Z,26.05
2022-12-23T07:19:52.995Z,26.12
2022-12-23T07:20:24.840Z,26.95
2022-12-23T07:21:00.492Z,26.15
2022-12-23T07:21:32.417Z,25.15
2022-12-23T07:22:05.649Z,26.95
2022-12-23T07:22:37.523Z,26.27
2022-12-23T07:23:09.335Z,24.37
2022-12-23T07:23:41.151Z,25.25
2022-12-23T07:24:12.980Z,26.27
2022-12-23T07:24:45.201Z,25.23
2022-12-23T07:25:17.041Z,25.08
2022-12-23T07:25:48.938Z,25.40
2022-12-23T07:26:20.913Z,24.83
2022-12-23T07:26:52.752Z,24.42
2022-12-23T07:27:24.927Z,24.52
2022-12-23T07:27:56.777Z,25.80
2022-12-23T07:28:28.616Z,27.20
2022-12-23T07:29:01.322Z,26.90
2022-12-23T07:29:33.198Z,25.92
2022-12-23T07:30:05.707Z,24.05
2022-12-23T07:30:37.543Z,25.83
2022-12-23T07:31:09.571Z,24.85
2022-12-23T07:31:41.578Z,25.88
2022-12-23T07:32:13.577Z,25.80
2022-12-23T07:32:48.631Z,25.90
2022-12-23T07:33:20.696Z,25.52
2022-12-23T07:33:52.541Z,25.08
2022-12-23T07:34:24.429Z,23.40
2022-12-23T07:34:56.274Z,23.58
2022-12-23T07:35:28.293Z,25.48
2022-12-23T07:36:00.211Z,24.92
2022-12-23T07:36:32.039Z,24.75
2022-12-23T07:37:03.898Z,26.15
2022-12-23T07:37:35.796Z,24.35
2022-12-23T07:38:08.891Z,24.27
2022-12-23T07:38:40.920Z,23.95
2022-12-23T07:39:12.786Z,24.55
2022-12-23T07:39:44.666Z,23.75
2022-12-23T07:40:16.517Z,24.58
2022-12-23T07:40:51.016Z,23.48
2022-12-23T07:41:22.855Z,24.35
2022-12-23T07:42:16.571Z,24.33
2022-12-23T07:42:54.684Z,22.08
2022-12-23T07:43:26.808Z,25.70
2022-12-23T07:43:58.701Z,24.50
2022-12-23T07:44:30.554Z,24.33
2022-12-23T07:45:02.517Z,23.23